Cap Theodora — SVAM5 — position and weather

sailwx.info

Track history (hours):
 
Tides and Currents Weather Stations Pressure Air Temp Water Temp Dewpoint Dewpoint Depression Visibility Wind Speed Wind Dir Waves Ship Positions

Cap Theodora

Last reported at 2015-Apr-01 16:05 UTC. Time now 2015-Apr-01 22:37 UTC.
Position N 36°06' W 000°50'.

Length 274 m; draft 15.2 m.

Type: Tanker. MMSI: 240840000.

Date/timePositionNaut miles runAvg speedWind from/ knotsBaromVisibWave heightAir tempDewpointWater temp
2015-Apr-01 16:05N 36°06' W 000°50'814.7
2015-Apr-01 15:31N 36°05' W 000°40'1513.9
2015-Apr-01 14:27N 36°02' W 000°22'  
2015-Mar-30 10:07N 35°53' W 000°14'3 0.8
2015-Mar-30 06:05N 35°54' W 000°10'2 0.5
2015-Mar-30 01:33N 35°56' W 000°10'0 0.1
2015-Mar-30 00:26N 35°56' W 000°10'0 0.2
2015-Mar-29 23:33N 35°56' W 000°10'0 0.3
2015-Mar-29 22:31N 35°56' W 000°10'0 0.3
2015-Mar-29 21:21N 35°56' W 000°10'0 0.1
2015-Mar-29 18:33N 35°56' W 000°09'4 1.1
2015-Mar-29 14:33N 35°51' W 000°09'8 0.6
2015-Mar-29 01:21N 35°56' W 000°16'3 0.4
2015-Mar-28 18:07N 35°54' W 000°14'1 1.9
2015-Mar-28 17:31N 35°55' W 000°13'2 0.1
2015-Mar-27 21:30N 35°55' W 000°10'1 0.8
2015-Mar-27 20:33N 35°55' W 000°11'1 1.0
2015-Mar-27 19:33N 35°55' W 000°12'1 1.2
2015-Mar-27 18:30N 35°55' W 000°14'1 0.8
2015-Mar-27 17:33N 35°55' W 000°15'6 5.0
2015-Mar-27 16:18N 35°57' W 000°08'  
2015-Mar-24 12:31N 36°08' W 005°23'0 0.1
2015-Mar-24 11:31N 36°08' W 005°23'2 1.7
2015-Mar-24 10:33N 36°06' W 005°22'6 5.9
2015-Mar-24 09:33N 36°00' W 005°22'  
Track history (hours):
 
Tides and Currents Weather Stations Pressure Air Temp Water Temp Dewpoint Dewpoint Depression Visibility Wind Speed Wind Dir Waves Ship Positions

Cap Theodora

Last reported at 2015-Apr-01 16:05 UTC. Time now 2015-Apr-01 22:37 UTC.
Position N 36°06' W 000°50'.

Length 274 m; draft 15.2 m.

Type: Tanker. MMSI: 240840000.

Date/timePositionNaut miles runAvg speedWind from/ knotsBaromVisibWave heightAir tempDewpointWater temp
2015-Apr-01 16:05N 36°06' W 000°50'814.7
2015-Apr-01 15:31N 36°05' W 000°40'1513.9
2015-Apr-01 14:27N 36°02' W 000°22'  
2015-Mar-30 10:07N 35°53' W 000°14'3 0.8
2015-Mar-30 06:05N 35°54' W 000°10'2 0.5
2015-Mar-30 01:33N 35°56' W 000°10'0 0.1
2015-Mar-30 00:26N 35°56' W 000°10'0 0.2
2015-Mar-29 23:33N 35°56' W 000°10'0 0.3
2015-Mar-29 22:31N 35°56' W 000°10'0 0.3
2015-Mar-29 21:21N 35°56' W 000°10'0 0.1
2015-Mar-29 18:33N 35°56' W 000°09'4 1.1
2015-Mar-29 14:33N 35°51' W 000°09'8 0.6
2015-Mar-29 01:21N 35°56' W 000°16'3 0.4
2015-Mar-28 18:07N 35°54' W 000°14'1 1.9
2015-Mar-28 17:31N 35°55' W 000°13'2 0.1
2015-Mar-27 21:30N 35°55' W 000°10'1 0.8
2015-Mar-27 20:33N 35°55' W 000°11'1 1.0
2015-Mar-27 19:33N 35°55' W 000°12'1 1.2
2015-Mar-27 18:30N 35°55' W 000°14'1 0.8
2015-Mar-27 17:33N 35°55' W 000°15'6 5.0
2015-Mar-27 16:18N 35°57' W 000°08'  
2015-Mar-24 12:31N 36°08' W 005°23'0 0.1
2015-Mar-24 11:31N 36°08' W 005°23'2 1.7
2015-Mar-24 10:33N 36°06' W 005°22'6 5.9
2015-Mar-24 09:33N 36°00' W 005°22'  

Dump ship's entire track history